createdAt,value
2018-12-20T00:04:15.306Z,89.87
2018-12-20T00:14:34.823Z,89.32
2018-12-20T00:24:54.213Z,89.32
2018-12-20T00:35:14.675Z,89.46
2018-12-20T00:45:33.824Z,90.11
2018-12-20T00:55:53.943Z,90.11
2018-12-20T01:06:13.363Z,89.83
2018-12-20T01:16:32.916Z,89.50
2018-12-20T01:26:52.989Z,89.65
2018-12-20T01:37:12.139Z,89.84
2018-12-20T01:47:32.242Z,89.84
2018-12-20T01:57:52.154Z,90.00
2018-12-20T02:08:11.390Z,89.88
2018-12-20T02:18:30.353Z,89.67
2018-12-20T02:28:50.141Z,89.59
2018-12-20T02:39:11.180Z,89.50
2018-12-20T02:49:30.610Z,89.38
2018-12-20T02:59:53.516Z,89.45
2018-12-20T03:10:12.792Z,89.37
2018-12-20T03:20:33.058Z,89.43
2018-12-20T03:30:53.202Z,89.77
2018-12-20T03:41:13.040Z,89.77
2018-12-20T03:51:32.061Z,89.89
2018-12-20T04:01:51.406Z,90.12
2018-12-20T04:12:10.571Z,90.12
2018-12-20T04:22:30.192Z,90.00
2018-12-20T04:32:49.895Z,90.36
2018-12-20T04:43:10.093Z,90.36
2018-12-20T04:53:31.689Z,90.27
2018-12-20T05:03:51.331Z,90.26
2018-12-20T05:14:10.551Z,90.05
2018-12-20T05:24:30.505Z,90.59
2018-12-20T05:34:50.762Z,90.73
2018-12-20T05:45:13.074Z,90.80
2018-12-20T05:55:32.813Z,90.71
2018-12-20T06:05:52.260Z,90.71
2018-12-20T06:16:12.952Z,90.83
2018-12-20T06:26:31.734Z,90.89
2018-12-20T06:36:52.766Z,90.89
2018-12-20T06:47:12.201Z,90.96
2018-12-20T06:57:33.535Z,91.00
2018-12-20T07:07:52.659Z,90.70
2018-12-20T07:18:12.424Z,90.15
2018-12-20T07:28:31.716Z,90.15
2018-12-20T07:38:51.644Z,89.87
2018-12-20T07:49:12.061Z,88.87
2018-12-20T07:59:32.201Z,88.82
2018-12-20T08:09:52.021Z,88.72
2018-12-20T08:20:12.615Z,88.35
2018-12-20T08:30:32.910Z,87.66
2018-12-20T08:40:52.874Z,87.60
2018-12-20T08:51:12.387Z,86.85
2018-12-20T09:01:32.644Z,85.58
2018-12-20T09:11:52.252Z,85.51
2018-12-20T09:22:12.020Z,84.47
2018-12-20T09:32:31.735Z,83.69
2018-12-20T09:42:52.481Z,83.01
2018-12-20T09:53:12.777Z,82.67
2018-12-20T10:03:32.440Z,83.14
2018-12-20T10:13:52.508Z,84.21
2018-12-20T10:24:12.174Z,85.36
2018-12-20T10:34:31.688Z,85.51
2018-12-20T10:44:50.761Z,84.92
2018-12-20T10:55:10.032Z,86.31
2018-12-20T11:05:48.256Z,86.62
2018-12-20T11:16:08.112Z,86.05
2018-12-20T11:26:27.458Z,86.20
2018-12-20T11:36:47.180Z,87.55
2018-12-20T11:47:26.431Z,87.79
2018-12-20T11:57:45.707Z,88.73
2018-12-20T12:08:04.976Z,88.42
2018-12-20T12:18:24.622Z,89.04
2018-12-20T12:28:46.546Z,88.98
2018-12-20T12:39:08.228Z,90.09
2018-12-20T12:49:27.977Z,90.73
2018-12-20T12:59:47.542Z,90.86
2018-12-20T13:10:07.801Z,90.24
2018-12-20T13:20:28.405Z,89.98
2018-12-20T13:30:48.768Z,90.19
2018-12-20T13:41:08.992Z,90.29
2018-12-20T13:51:28.705Z,90.57
2018-12-20T14:01:48.436Z,90.61
2018-12-20T14:12:08.401Z,90.84
2018-12-20T14:22:27.741Z,91.05
2018-12-20T14:32:47.856Z,91.07
2018-12-20T14:43:07.905Z,91.37
2018-12-20T14:53:27.781Z,91.87
2018-12-20T15:03:47.220Z,92.08
2018-12-20T15:14:06.487Z,92.73
2018-12-20T15:24:26.607Z,92.87
2018-12-20T15:34:47.149Z,93.03
2018-12-20T15:45:08.839Z,92.99
2018-12-20T15:55:28.286Z,93.50
2018-12-20T16:05:48.404Z,94.16
2018-12-20T16:16:08.608Z,94.55
2018-12-20T16:26:28.562Z,95.03
2018-12-20T16:36:48.859Z,95.46
2018-12-20T16:47:08.744Z,95.82
2018-12-20T16:57:28.952Z,96.15
2018-12-20T17:07:49.379Z,96.35
2018-12-20T17:18:09.403Z,96.56
2018-12-20T17:28:28.934Z,96.77
2018-12-20T17:38:49.528Z,96.71
2018-12-20T17:49:11.060Z,97.07
2018-12-20T17:59:31.425Z,97.12
2018-12-20T18:09:51.015Z,97.45
2018-12-20T18:20:11.354Z,97.38
2018-12-20T18:30:31.698Z,97.38
2018-12-20T18:40:51.789Z,97.47
2018-12-20T18:51:11.350Z,97.57
2018-12-20T19:01:31.853Z,97.62
2018-12-20T19:11:52.954Z,97.69
2018-12-20T19:22:13.309Z,97.52
2018-12-20T19:32:33.146Z,97.52
2018-12-20T19:42:53.227Z,97.55
2018-12-20T19:53:14.154Z,97.63
2018-12-20T20:03:34.397Z,97.63
2018-12-20T20:13:55.004Z,97.68
2018-12-20T20:24:17.471Z,97.69
2018-12-20T20:34:38.830Z,97.64
2018-12-20T20:44:58.727Z,97.50
2018-12-20T20:55:18.684Z,97.50
2018-12-20T21:05:38.409Z,97.69
2018-12-20T21:15:59.624Z,97.68
2018-12-20T21:26:20.174Z,97.72
2018-12-20T21:36:39.944Z,97.97
2018-12-20T21:47:00.453Z,97.84
2018-12-20T21:57:21.596Z,97.83
2018-12-20T22:07:40.768Z,97.65
2018-12-20T22:18:02.177Z,97.72
2018-12-20T22:28:22.025Z,97.57
2018-12-20T22:38:42.835Z,97.13
2018-12-20T22:49:02.344Z,97.13
2018-12-20T22:59:23.108Z,97.33
2018-12-20T23:09:42.783Z,97.44
2018-12-20T23:20:03.015Z,97.44
2018-12-20T23:30:22.560Z,96.87
2018-12-20T23:40:42.199Z,96.60
2018-12-20T23:51:01.460Z,96.35
